createdAt,value
2022-10-23T00:00:26.126Z,3.15
2022-10-23T00:01:31.738Z,2.97
2022-10-23T00:02:34.506Z,3.00
2022-10-23T00:03:37.337Z,3.15
2022-10-23T00:04:40.021Z,2.50
2022-10-23T00:05:42.772Z,3.22
2022-10-23T00:06:46.257Z,3.47
2022-10-23T00:07:53.905Z,3.42
2022-10-23T00:08:56.732Z,2.85
2022-10-23T00:09:59.373Z,2.60
2022-10-23T00:11:05.957Z,2.60
2022-10-23T00:12:08.692Z,3.53
2022-10-23T00:13:11.457Z,3.08
2022-10-23T00:14:15.854Z,2.78
2022-10-23T00:15:22.387Z,3.03
2022-10-23T00:16:26.014Z,2.33
2022-10-23T00:17:28.732Z,2.85
2022-10-23T00:18:31.729Z,2.78
2022-10-23T00:19:34.417Z,3.72
2022-10-23T00:20:37.009Z,3.15
2022-10-23T00:21:39.819Z,3.30
2022-10-23T00:22:42.738Z,2.92
2022-10-23T00:23:46.295Z,3.92
2022-10-23T00:24:48.899Z,3.25
2022-10-23T00:25:51.510Z,3.60
2022-10-23T00:26:57.412Z,3.10
2022-10-23T00:28:00.289Z,2.65
2022-10-23T00:29:02.903Z,3.05
2022-10-23T00:30:06.651Z,3.25
2022-10-23T00:31:09.899Z,3.03
2022-10-23T00:32:15.893Z,2.90
2022-10-23T00:33:18.454Z,3.97
2022-10-23T00:34:21.249Z,3.55
2022-10-23T00:35:23.971Z,3.00
2022-10-23T00:36:26.933Z,3.58
2022-10-23T00:37:30.140Z,3.12
2022-10-23T00:38:32.852Z,2.72
2022-10-23T00:39:39.411Z,3.62
2022-10-23T00:40:44.230Z,3.78
2022-10-23T00:41:46.891Z,3.08
2022-10-23T00:42:49.605Z,3.85
2022-10-23T00:44:30.254Z,3.30
2022-10-23T00:45:34.278Z,3.35
2022-10-23T00:46:39.133Z,2.95
2022-10-23T00:47:42.572Z,3.62
2022-10-23T00:48:45.291Z,3.45
2022-10-23T00:49:47.888Z,3.33
2022-10-23T00:50:51.093Z,3.90
2022-10-23T00:51:59.500Z,3.90
2022-10-23T00:53:04.408Z,3.45
2022-10-23T00:54:24.667Z,3.33
2022-10-23T00:55:29.618Z,3.30
2022-10-23T00:56:34.105Z,2.90
2022-10-23T00:57:40.538Z,3.05
2022-10-23T00:58:43.154Z,4.57
2022-10-23T00:59:45.860Z,3.97
2022-10-23T01:00:55.107Z,4.10
2022-10-23T01:01:58.991Z,3.22
2022-10-23T01:03:01.723Z,3.10
2022-10-23T01:04:07.453Z,3.47
2022-10-23T01:05:10.652Z,3.03
2022-10-23T01:06:25.288Z,2.80
2022-10-23T01:07:36.493Z,3.05
2022-10-23T01:08:50.690Z,2.87
2022-10-23T01:10:11.613Z,3.55
2022-10-23T01:12:51.891Z,3.08
2022-10-23T01:13:57.158Z,3.12
2022-10-23T01:15:32.093Z,3.00
2022-10-23T01:16:34.653Z,3.10
2022-10-23T01:17:44.977Z,3.65
2022-10-23T01:19:03.433Z,3.20
2022-10-23T01:20:31.954Z,2.97
2022-10-23T01:21:49.553Z,2.90
2022-10-23T01:23:10.265Z,2.67
2022-10-23T01:24:27.675Z,2.40
2022-10-23T01:26:12.825Z,3.83
2022-10-23T01:27:22.941Z,3.00
2022-10-23T01:28:36.522Z,2.67
2022-10-23T01:29:46.967Z,3.20
2022-10-23T01:30:50.105Z,2.47
2022-10-23T01:32:00.267Z,3.28
2022-10-23T01:33:10.155Z,2.83
2022-10-23T01:34:32.345Z,4.43
2022-10-23T01:36:08.813Z,3.28
2022-10-23T01:37:16.155Z,2.62
2022-10-23T01:38:20.945Z,3.15
2022-10-23T01:39:32.903Z,3.50
2022-10-23T01:41:03.115Z,3.90
2022-10-23T01:42:12.073Z,3.65
2022-10-23T01:43:25.592Z,3.12
2022-10-23T01:44:43.468Z,3.62
2022-10-23T01:45:55.261Z,2.83
2022-10-23T01:46:58.304Z,2.65
2022-10-23T01:48:03.071Z,3.42
2022-10-23T01:49:09.575Z,3.20
2022-10-23T01:50:15.127Z,2.70
2022-10-23T01:51:19.091Z,3.35
2022-10-23T01:52:22.360Z,2.97
2022-10-23T01:53:31.305Z,2.87
2022-10-23T01:54:38.868Z,2.70
2022-10-23T01:55:43.352Z,3.55
2022-10-23T01:56:51.538Z,2.80
2022-10-23T01:57:54.912Z,3.20
2022-10-23T01:59:01.976Z,2.75
2022-10-23T02:00:11.457Z,3.20
2022-10-23T02:01:16.654Z,3.10
2022-10-23T02:02:22.965Z,2.87
2022-10-23T02:03:29.313Z,2.22
2022-10-23T02:04:46.633Z,2.25
2022-10-23T02:05:49.316Z,3.20
2022-10-23T02:06:52.195Z,3.30
2022-10-23T02:07:55.464Z,3.05
2022-10-23T02:08:58.279Z,3.22
2022-10-23T02:10:01.082Z,3.22
2022-10-23T02:11:11.572Z,2.92
2022-10-23T02:13:45.064Z,2.40
2022-10-23T02:14:55.091Z,2.30
2022-10-23T02:16:11.291Z,2.67
2022-10-23T02:17:22.925Z,2.37
2022-10-23T02:18:36.291Z,2.70
2022-10-23T02:20:19.382Z,2.30
2022-10-23T02:21:38.100Z,2.78
2022-10-23T02:22:47.677Z,2.05
2022-10-23T02:24:03.418Z,2.72
2022-10-23T02:25:13.690Z,2.97
2022-10-23T02:26:18.457Z,3.15
2022-10-23T02:27:30.052Z,2.30
2022-10-23T02:28:57.947Z,3.22
2022-10-23T02:30:10.022Z,2.47
2022-10-23T02:31:16.171Z,3.00
2022-10-23T02:32:21.019Z,2.08
2022-10-23T02:33:26.330Z,2.87
2022-10-23T02:34:28.975Z,3.40
2022-10-23T02:35:31.843Z,3.35
2022-10-23T02:36:34.606Z,2.42
2022-10-23T02:37:37.455Z,3.30
2022-10-23T02:38:43.043Z,2.70
2022-10-23T02:39:45.955Z,2.40
2022-10-23T02:40:48.741Z,2.90
2022-10-23T02:42:17.497Z,3.05
2022-10-23T02:43:37.571Z,2.37
2022-10-23T02:45:01.057Z,2.33
2022-10-23T02:46:20.326Z,2.40
2022-10-23T02:48:01.812Z,1.98
2022-10-23T02:49:17.220Z,1.45
2022-10-23T02:50:44.317Z,1.65
2022-10-23T02:52:09.350Z,2.28
2022-10-23T02:53:31.506Z,1.90
2022-10-23T02:54:40.081Z,2.33
2022-10-23T02:56:09.065Z,2.17
2022-10-23T02:58:27.919Z,2.12
2022-10-23T02:59:54.349Z,1.87
2022-10-23T03:01:09.839Z,2.03
2022-10-23T03:02:25.581Z,2.40
2022-10-23T03:03:35.714Z,2.25
2022-10-23T03:04:40.966Z,2.05
2022-10-23T03:05:47.555Z,2.15
2022-10-23T03:06:51.846Z,2.40
2022-10-23T03:07:54.705Z,2.97
2022-10-23T03:09:05.650Z,2.15
2022-10-23T03:11:12.057Z,2.28
2022-10-23T03:12:14.868Z,2.60
2022-10-23T03:13:17.619Z,2.03
2022-10-23T03:14:20.312Z,2.28
2022-10-23T03:15:23.014Z,2.22
2022-10-23T03:16:25.867Z,2.47
2022-10-23T03:17:28.585Z,2.12
2022-10-23T03:18:31.326Z,2.17
2022-10-23T03:19:34.091Z,2.05
2022-10-23T03:20:36.703Z,2.42
2022-10-23T03:21:39.353Z,2.70
2022-10-23T03:22:42.181Z,2.67
2022-10-23T03:23:45.120Z,1.92
2022-10-23T03:24:47.796Z,2.28
2022-10-23T03:25:50.716Z,2.55
2022-10-23T03:26:53.512Z,2.50
2022-10-23T03:27:56.310Z,2.55
2022-10-23T03:28:58.984Z,2.60
2022-10-23T03:30:01.996Z,2.00
2022-10-23T03:31:05.742Z,2.45
2022-10-23T03:32:09.163Z,2.37
2022-10-23T03:33:11.994Z,3.37
2022-10-23T03:34:15.231Z,2.12
2022-10-23T03:35:18.001Z,2.47
2022-10-23T03:36:20.649Z,2.45
2022-10-23T03:37:23.361Z,2.55
2022-10-23T03:38:26.183Z,2.87
2022-10-23T03:39:28.927Z,1.98
2022-10-23T03:40:31.788Z,2.20
2022-10-23T03:41:34.498Z,2.12
2022-10-23T03:42:37.159Z,2.25
2022-10-23T03:43:39.835Z,2.62
2022-10-23T03:44:42.396Z,2.62
2022-10-23T03:45:48.488Z,2.55
2022-10-23T03:46:51.339Z,2.12
2022-10-23T03:47:54.072Z,2.45
2022-10-23T03:48:58.468Z,2.78
2022-10-23T03:50:01.393Z,2.22
2022-10-23T03:51:05.527Z,2.65
2022-10-23T03:52:08.765Z,2.70
2022-10-23T03:53:11.410Z,2.92
2022-10-23T03:54:14.159Z,3.10
2022-10-23T03:55:17.384Z,2.45
2022-10-23T03:56:20.120Z,2.85
2022-10-23T03:57:22.754Z,2.35
2022-10-23T03:58:25.371Z,2.28
2022-10-23T03:59:28.585Z,2.87
2022-10-23T04:00:31.298Z,2.47
2022-10-23T04:01:34.074Z,2.17
2022-10-23T04:02:36.927Z,1.95
2022-10-23T04:03:39.629Z,2.03
2022-10-23T04:04:42.215Z,2.42
2022-10-23T04:05:45.052Z,1.75
2022-10-23T04:06:47.716Z,3.25
2022-10-23T04:07:51.062Z,2.03
2022-10-23T04:08:53.765Z,2.05
2022-10-23T04:09:56.334Z,2.10
2022-10-23T04:10:59.017Z,2.35
2022-10-23T04:12:01.748Z,3.50
2022-10-23T04:13:04.360Z,2.22
2022-10-23T04:14:07.117Z,2.55
2022-10-23T04:15:10.120Z,2.47
2022-10-23T04:16:12.735Z,2.40
2022-10-23T04:17:15.325Z,2.85
2022-10-23T04:18:18.604Z,2.50
2022-10-23T04:19:21.293Z,2.08
2022-10-23T04:20:23.917Z,2.67
2022-10-23T04:21:26.572Z,2.95
2022-10-23T04:22:29.311Z,2.50
2022-10-23T04:23:31.965Z,2.50
2022-10-23T04:24:34.651Z,1.83
2022-10-23T04:25:37.569Z,2.95
2022-10-23T04:26:40.310Z,2.00
2022-10-23T04:27:43.316Z,2.05
2022-10-23T04:28:46.193Z,2.22
2022-10-23T04:29:49.453Z,1.95
2022-10-23T04:30:52.327Z,1.90
2022-10-23T04:31:54.949Z,1.92
2022-10-23T04:32:57.556Z,1.90
2022-10-23T04:34:00.298Z,1.73
2022-10-23T04:35:03.088Z,2.60
2022-10-23T04:36:06.217Z,1.90
2022-10-23T04:37:08.965Z,2.15
2022-10-23T04:38:11.758Z,2.30
2022-10-23T04:39:14.897Z,2.53
2022-10-23T04:40:17.514Z,1.98
2022-10-23T04:41:20.241Z,2.58
2022-10-23T04:42:22.992Z,2.08
2022-10-23T04:43:25.763Z,2.20
2022-10-23T04:44:28.433Z,2.25
2022-10-23T04:45:31.106Z,2.00
2022-10-23T04:46:33.891Z,1.95
2022-10-23T04:47:36.742Z,2.10
2022-10-23T04:48:39.427Z,2.22
2022-10-23T04:49:41.984Z,1.83
2022-10-23T04:51:52.103Z,2.00
2022-10-23T04:52:56.073Z,1.70
2022-10-23T04:53:58.951Z,1.30
2022-10-23T04:55:01.558Z,1.87
2022-10-23T04:56:04.463Z,1.45
2022-10-23T04:57:07.210Z,1.95
2022-10-23T04:58:09.872Z,2.00
2022-10-23T04:59:12.485Z,2.37
2022-10-23T05:00:16.411Z,1.50
2022-10-23T05:01:19.137Z,2.22
2022-10-23T05:02:21.969Z,1.62
2022-10-23T05:03:26.215Z,1.73
2022-10-23T05:04:28.953Z,1.40
2022-10-23T05:05:31.628Z,1.80
2022-10-23T05:06:34.338Z,1.90
2022-10-23T05:07:39.266Z,1.30
2022-10-23T05:08:41.938Z,1.77
2022-10-23T05:09:44.577Z,1.48
2022-10-23T05:10:48.856Z,1.90
2022-10-23T05:11:51.476Z,2.08
2022-10-23T05:12:54.145Z,1.73
2022-10-23T05:13:56.816Z,1.50
2022-10-23T05:14:59.573Z,1.95
2022-10-23T05:16:02.335Z,1.83
2022-10-23T05:17:11.912Z,1.50
2022-10-23T05:18:23.682Z,1.33
2022-10-23T05:19:33.981Z,1.42
2022-10-23T05:20:40.051Z,1.92
2022-10-23T05:21:42.813Z,1.55
2022-10-23T05:22:47.454Z,1.60
2022-10-23T05:23:50.788Z,1.67
2022-10-23T05:24:54.768Z,1.48
2022-10-23T05:27:04.969Z,1.95
2022-10-23T05:28:07.818Z,1.92
2022-10-23T05:29:10.535Z,2.00
2022-10-23T05:30:14.051Z,1.90
2022-10-23T05:31:19.690Z,1.75
2022-10-23T05:32:24.377Z,1.48
2022-10-23T05:33:28.045Z,1.55
2022-10-23T05:34:31.910Z,1.50
2022-10-23T05:35:34.657Z,1.83
2022-10-23T05:36:38.047Z,1.90
2022-10-23T05:37:43.861Z,1.58
2022-10-23T05:38:47.124Z,1.60
2022-10-23T05:39:49.742Z,1.70
2022-10-23T05:40:53.205Z,1.55
2022-10-23T05:41:56.328Z,1.70
2022-10-23T05:42:58.956Z,1.87
2022-10-23T05:44:01.729Z,2.08
2022-10-23T05:45:04.957Z,2.15
2022-10-23T05:46:07.841Z,1.87
2022-10-23T05:47:10.462Z,1.80
2022-10-23T05:48:29.804Z,1.80
2022-10-23T05:49:36.921Z,2.08
2022-10-23T05:50:39.788Z,2.22
2022-10-23T05:51:42.594Z,2.28
2022-10-23T05:52:47.731Z,2.58
2022-10-23T05:53:50.896Z,2.50
2022-10-23T05:54:53.544Z,2.47
2022-10-23T05:55:56.385Z,1.85
2022-10-23T05:56:59.507Z,1.90
2022-10-23T05:58:03.265Z,2.45
2022-10-23T05:59:07.969Z,2.08
2022-10-23T06:00:11.565Z,2.10
2022-10-23T06:01:15.024Z,1.85
2022-10-23T06:02:17.848Z,1.48
2022-10-23T06:03:20.649Z,2.53
2022-10-23T06:04:23.405Z,2.20
2022-10-23T06:05:26.250Z,1.70
2022-10-23T06:06:28.964Z,1.75
2022-10-23T06:07:33.717Z,1.48
2022-10-23T06:08:38.405Z,1.52
2022-10-23T06:09:41.078Z,1.50
2022-10-23T06:10:43.775Z,1.70
2022-10-23T06:11:47.276Z,1.70
2022-10-23T06:12:49.867Z,2.17
2022-10-23T06:16:14.472Z,1.52
2022-10-23T06:17:17.079Z,1.85
2022-10-23T06:18:19.730Z,1.77
2022-10-23T06:19:22.467Z,2.30
2022-10-23T06:20:28.886Z,1.77
2022-10-23T06:21:31.634Z,1.80
2022-10-23T06:22:34.205Z,2.15
2022-10-23T06:23:38.550Z,2.08
2022-10-23T06:24:41.340Z,1.42
2022-10-23T06:25:51.316Z,1.83
2022-10-23T06:26:53.925Z,1.77
2022-10-23T06:27:56.565Z,1.50
2022-10-23T06:28:59.538Z,2.10
2022-10-23T06:30:02.130Z,1.48
2022-10-23T06:31:06.232Z,1.60
2022-10-23T06:32:08.990Z,1.83
2022-10-23T06:33:11.647Z,2.03
2022-10-23T06:34:14.571Z,1.50
2022-10-23T06:35:18.800Z,2.05
2022-10-23T06:36:22.075Z,1.73
2022-10-23T06:37:28.655Z,1.95
2022-10-23T06:38:37.153Z,1.90
2022-10-23T06:39:40.693Z,1.77
2022-10-23T06:40:43.311Z,2.22
2022-10-23T06:41:46.202Z,1.80
2022-10-23T06:42:48.761Z,1.95
2022-10-23T06:43:52.024Z,2.10
2022-10-23T06:44:54.690Z,1.90
2022-10-23T06:46:01.024Z,2.08
2022-10-23T06:47:03.713Z,1.73
2022-10-23T06:48:06.542Z,1.90
2022-10-23T06:49:09.100Z,1.87
2022-10-23T06:50:14.590Z,2.03
2022-10-23T06:51:18.573Z,2.10
2022-10-23T06:52:45.305Z,1.77
2022-10-23T06:53:44.850Z,1.58
2022-10-23T06:54:47.465Z,1.77
2022-10-23T06:55:52.945Z,1.80
2022-10-23T06:56:59.625Z,1.80
2022-10-23T06:58:02.871Z,2.03
2022-10-23T06:59:07.858Z,2.22
2022-10-23T07:00:11.431Z,2.72
2022-10-23T07:01:14.937Z,2.67
2022-10-23T07:02:17.766Z,2.10
2022-10-23T07:03:20.388Z,2.85
2022-10-23T07:04:23.039Z,2.87
2022-10-23T07:05:25.708Z,2.17
2022-10-23T07:06:28.363Z,1.98
2022-10-23T07:07:31.559Z,2.78
2022-10-23T07:08:34.211Z,2.62
2022-10-23T07:09:36.937Z,2.95
2022-10-23T07:10:43.012Z,2.25
2022-10-23T07:11:45.590Z,2.37
2022-10-23T07:12:49.074Z,2.70
2022-10-23T07:13:51.682Z,3.15
2022-10-23T07:14:54.264Z,3.03
2022-10-23T07:15:57.004Z,2.62
2022-10-23T07:16:59.811Z,2.58
2022-10-23T07:18:02.506Z,2.80
2022-10-23T07:19:07.269Z,2.83
2022-10-23T07:20:09.998Z,2.87
2022-10-23T07:21:12.808Z,3.22
2022-10-23T07:22:16.110Z,2.87
2022-10-23T07:23:18.914Z,3.78
2022-10-23T07:24:21.572Z,2.87
2022-10-23T07:25:26.830Z,2.55
2022-10-23T07:26:29.871Z,3.40
2022-10-23T07:27:37.491Z,2.95
2022-10-23T07:28:41.608Z,3.62
2022-10-23T07:29:44.335Z,4.37
2022-10-23T07:30:59.137Z,2.75
2022-10-23T07:32:01.987Z,2.83
2022-10-23T07:33:04.601Z,2.92
2022-10-23T07:34:07.193Z,2.92
2022-10-23T07:35:12.279Z,2.72
2022-10-23T07:36:14.976Z,3.30
2022-10-23T07:37:17.635Z,2.70
2022-10-23T07:38:20.660Z,2.80
2022-10-23T07:39:23.722Z,2.87
2022-10-23T07:40:26.583Z,2.55
2022-10-23T07:41:29.195Z,2.78
2022-10-23T07:42:32.111Z,3.10
2022-10-23T07:43:35.482Z,3.45
2022-10-23T07:44:38.121Z,2.80
2022-10-23T07:45:40.796Z,3.10
2022-10-23T07:46:43.388Z,3.35
2022-10-23T07:47:51.576Z,2.80
2022-10-23T07:48:54.312Z,2.60
2022-10-23T07:49:56.882Z,3.30
2022-10-23T07:51:01.725Z,2.90
2022-10-23T07:52:07.315Z,3.17
2022-10-23T07:53:19.149Z,2.58
2022-10-23T07:54:22.195Z,2.50
2022-10-23T07:55:24.971Z,3.12
2022-10-23T07:56:31.758Z,2.78
2022-10-23T07:57:34.351Z,2.83
2022-10-23T07:58:37.182Z,2.80
2022-10-23T07:59:39.740Z,3.05
2022-10-23T08:00:42.427Z,2.65
2022-10-23T08:01:48.186Z,2.67
2022-10-23T08:02:51.425Z,2.95
2022-10-23T08:03:54.147Z,3.03
2022-10-23T08:04:56.706Z,3.00
2022-10-23T08:06:00.161Z,3.20
2022-10-23T08:07:02.791Z,3.05
2022-10-23T08:08:05.415Z,3.33
2022-10-23T08:09:08.123Z,3.12
2022-10-23T08:10:10.730Z,2.80
2022-10-23T08:11:15.405Z,2.97
2022-10-23T08:12:18.170Z,3.37
2022-10-23T08:13:21.637Z,2.95
2022-10-23T08:14:24.235Z,3.30
2022-10-23T08:15:26.755Z,2.72
2022-10-23T08:16:29.427Z,2.58
2022-10-23T08:17:32.075Z,2.55
2022-10-23T08:18:34.863Z,2.42
2022-10-23T08:19:37.565Z,2.75
2022-10-23T08:20:41.679Z,2.45
2022-10-23T08:21:44.135Z,2.50
2022-10-23T08:23:49.545Z,2.72
2022-10-23T08:24:52.253Z,3.08
2022-10-23T08:26:01.649Z,2.80
2022-10-23T08:27:04.199Z,2.20
2022-10-23T08:28:08.197Z,2.35
2022-10-23T08:29:11.019Z,2.40
2022-10-23T08:30:13.797Z,2.40
2022-10-23T08:31:18.513Z,1.95
2022-10-23T08:32:21.219Z,2.03
2022-10-23T08:33:24.384Z,2.00
2022-10-23T08:34:27.867Z,1.80
2022-10-23T08:35:30.597Z,2.12
2022-10-23T08:36:34.193Z,2.05
2022-10-23T08:37:37.031Z,1.60
2022-10-23T08:38:39.709Z,1.87
2022-10-23T08:39:42.410Z,1.70
2022-10-23T08:40:48.349Z,2.00
2022-10-23T08:41:52.900Z,1.87
2022-10-23T08:43:32.667Z,2.17
2022-10-23T08:44:52.250Z,2.00
2022-10-23T08:46:07.298Z,1.77
2022-10-23T08:47:18.988Z,1.77
2022-10-23T08:48:25.427Z,2.08
2022-10-23T08:49:49.771Z,2.03
2022-10-23T08:51:18.364Z,2.10
2022-10-23T08:52:25.095Z,2.28
2022-10-23T08:53:35.087Z,2.58
2022-10-23T08:54:53.343Z,2.20
2022-10-23T08:56:03.278Z,1.80
2022-10-23T08:57:14.046Z,1.70
2022-10-23T08:58:29.772Z,1.90
2022-10-23T08:59:40.624Z,1.70
2022-10-23T09:00:44.867Z,1.87
2022-10-23T09:01:54.666Z,1.60
2022-10-23T09:02:57.649Z,1.80
2022-10-23T09:04:00.975Z,2.17
2022-10-23T09:05:04.041Z,1.90
2022-10-23T09:06:35.283Z,2.12
2022-10-23T09:07:50.146Z,1.62
2022-10-23T09:09:14.303Z,1.90
2022-10-23T09:10:38.335Z,1.70
2022-10-23T09:11:59.180Z,1.77
2022-10-23T09:13:16.621Z,1.35
2022-10-23T09:14:33.575Z,1.73
2022-10-23T09:15:42.651Z,2.45
2022-10-23T09:17:01.184Z,1.35
2022-10-23T09:18:15.708Z,1.98
2022-10-23T09:19:24.939Z,1.35
2022-10-23T09:20:32.620Z,1.65
2022-10-23T09:21:36.499Z,1.83
2022-10-23T09:22:39.313Z,1.45
2022-10-23T09:23:42.191Z,1.48
2022-10-23T09:24:44.805Z,1.62
2022-10-23T09:25:48.787Z,1.50
2022-10-23T09:26:53.543Z,1.70
2022-10-23T09:28:02.758Z,1.62
2022-10-23T09:29:26.045Z,1.58
2022-10-23T09:31:56.091Z,1.67
2022-10-23T09:33:14.376Z,1.33
2022-10-23T09:34:21.420Z,1.73
2022-10-23T09:35:27.276Z,1.35
2022-10-23T09:36:30.220Z,2.08
2022-10-23T09:37:36.075Z,1.55
2022-10-23T09:38:52.037Z,1.70
2022-10-23T09:40:15.752Z,2.17
2022-10-23T09:41:23.120Z,1.90
2022-10-23T09:42:26.568Z,2.17
2022-10-23T09:43:29.576Z,1.70
2022-10-23T09:44:34.273Z,2.15
2022-10-23T09:45:38.669Z,1.85
2022-10-23T09:48:12.550Z,2.10
2022-10-23T09:49:21.692Z,1.60
2022-10-23T09:50:24.457Z,1.95
2022-10-23T09:51:27.281Z,1.50
2022-10-23T09:52:37.572Z,1.60
2022-10-23T09:53:47.627Z,1.33
2022-10-23T09:55:02.324Z,1.30
2022-10-23T09:56:26.977Z,1.55
2022-10-23T09:57:38.442Z,1.35
2022-10-23T09:58:57.286Z,1.50
2022-10-23T10:00:15.375Z,1.40
2022-10-23T10:01:27.067Z,1.40
2022-10-23T10:02:32.697Z,1.77
2022-10-23T10:03:37.572Z,2.05
2022-10-23T10:04:41.849Z,1.70
2022-10-23T10:05:45.898Z,1.58
2022-10-23T10:06:57.541Z,1.60
2022-10-23T10:08:28.206Z,1.60
2022-10-23T10:09:30.841Z,1.62
2022-10-23T10:10:42.055Z,1.90
2022-10-23T10:11:50.163Z,1.80
2022-10-23T10:13:01.783Z,2.35
2022-10-23T10:14:07.159Z,2.03
2022-10-23T10:15:28.424Z,1.85
2022-10-23T10:16:48.166Z,1.77
2022-10-23T10:18:12.855Z,1.85
2022-10-23T10:19:48.573Z,1.70
2022-10-23T10:21:09.547Z,2.40
2022-10-23T10:22:31.398Z,2.03
2022-10-23T10:23:50.474Z,2.33
2022-10-23T10:25:17.312Z,1.80
2022-10-23T10:26:23.037Z,2.10
2022-10-23T10:27:46.284Z,1.92
2022-10-23T10:29:14.389Z,2.00
2022-10-23T10:30:22.869Z,2.22
2022-10-23T10:31:50.762Z,2.25
2022-10-23T10:33:02.222Z,2.20
2022-10-23T10:34:15.475Z,2.12
2022-10-23T10:35:35.241Z,1.98
2022-10-23T10:36:42.045Z,2.10
2022-10-23T10:37:51.173Z,2.20
2022-10-23T10:39:00.190Z,1.80
2022-10-23T10:40:23.160Z,2.12
2022-10-23T10:41:25.781Z,2.22
2022-10-23T10:42:50.088Z,2.00
2022-10-23T10:44:16.610Z,2.20
2022-10-23T10:45:49.446Z,1.70
2022-10-23T10:47:10.891Z,1.90
2022-10-23T10:48:32.707Z,1.55
2022-10-23T10:49:40.852Z,1.33
2022-10-23T10:50:54.630Z,1.70
2022-10-23T10:52:15.239Z,1.90
2022-10-23T10:53:36.164Z,1.37
2022-10-23T10:55:14.588Z,1.30
2022-10-23T10:56:20.827Z,1.60
2022-10-23T10:57:34.878Z,1.48
2022-10-23T10:58:46.091Z,1.30
2022-10-23T10:59:53.989Z,1.52
2022-10-23T11:01:00.785Z,1.40
2022-10-23T11:02:19.027Z,1.25
2022-10-23T11:03:42.621Z,1.20
2022-10-23T11:05:20.787Z,1.35
2022-10-23T11:06:27.601Z,1.10
2022-10-23T11:07:37.368Z,1.20
2022-10-23T11:08:56.148Z,1.42
2022-10-23T11:10:04.667Z,1.10
2022-10-23T11:11:18.332Z,1.40
2022-10-23T11:12:24.962Z,1.08
2022-10-23T11:13:33.930Z,1.30
2022-10-23T11:14:36.712Z,1.65
2022-10-23T11:15:43.869Z,1.30
2022-10-23T11:16:56.767Z,0.95
2022-10-23T11:18:03.893Z,0.98
2022-10-23T11:19:16.116Z,1.30
2022-10-23T11:20:47.598Z,1.20
2022-10-23T11:22:22.365Z,1.40
2022-10-23T11:24:07.174Z,1.35
2022-10-23T11:25:37.103Z,1.42
2022-10-23T11:26:52.312Z,1.45
2022-10-23T11:28:13.865Z,1.60
2022-10-23T11:29:44.114Z,1.75
2022-10-23T11:30:47.064Z,1.58
2022-10-23T11:32:27.336Z,1.67
2022-10-23T11:34:07.048Z,1.90
2022-10-23T11:35:34.559Z,2.30
2022-10-23T11:36:52.792Z,1.60
2022-10-23T11:38:07.954Z,1.87
2022-10-23T11:39:26.602Z,2.10
2022-10-23T11:40:29.768Z,2.40
2022-10-23T11:41:34.644Z,2.50
2022-10-23T11:42:40.515Z,2.75
2022-10-23T11:43:51.794Z,2.80
2022-10-23T11:44:55.478Z,3.10
2022-10-23T11:45:58.695Z,3.00
2022-10-23T11:47:23.482Z,2.90
2022-10-23T11:48:40.394Z,2.83
2022-10-23T11:49:43.234Z,2.80
2022-10-23T11:50:46.306Z,2.83
2022-10-23T11:52:00.567Z,2.62
2022-10-23T11:53:23.825Z,2.92
2022-10-23T11:54:32.786Z,2.60
2022-10-23T11:55:35.450Z,2.20
2022-10-23T11:56:51.051Z,1.92
2022-10-23T11:58:11.807Z,3.00
2022-10-23T11:59:33.052Z,3.40
2022-10-23T12:00:40.760Z,3.83
2022-10-23T12:01:45.723Z,3.40
2022-10-23T12:02:59.144Z,3.30
2022-10-23T12:04:13.757Z,3.25
2022-10-23T12:05:32.008Z,3.75
2022-10-23T12:06:44.597Z,3.37
2022-10-23T12:07:56.269Z,3.28
2022-10-23T12:09:25.283Z,2.80
2022-10-23T12:10:35.803Z,2.45
2022-10-23T12:13:04.082Z,2.53
2022-10-23T12:14:31.129Z,3.53
2022-10-23T12:15:37.405Z,2.30
2022-10-23T12:16:40.355Z,2.50
2022-10-23T12:17:44.172Z,3.15
2022-10-23T12:18:50.279Z,2.10
2022-10-23T12:20:03.747Z,2.22
2022-10-23T12:21:18.818Z,2.05
2022-10-23T12:22:28.364Z,2.10
2022-10-23T12:23:43.174Z,2.47
2022-10-23T12:25:12.696Z,2.15
2022-10-23T12:26:28.111Z,1.65
2022-10-23T12:27:49.206Z,2.60
2022-10-23T12:29:19.923Z,2.08
2022-10-23T12:30:24.411Z,2.00
2022-10-23T12:31:33.084Z,1.83
2022-10-23T12:33:01.441Z,1.77
2022-10-23T12:34:20.801Z,1.50
2022-10-23T12:35:24.024Z,1.62
2022-10-23T12:36:45.144Z,1.50
2022-10-23T12:38:12.938Z,1.45
2022-10-23T12:39:30.907Z,1.60
2022-10-23T12:40:33.775Z,1.33
2022-10-23T12:41:39.372Z,1.50
2022-10-23T12:42:52.648Z,1.50
2022-10-23T12:44:05.949Z,1.50
2022-10-23T12:45:19.711Z,1.40
2022-10-23T12:46:31.474Z,1.30
2022-10-23T12:47:34.508Z,1.58
2022-10-23T12:48:49.662Z,1.50
2022-10-23T12:49:53.087Z,1.50
2022-10-23T12:50:56.677Z,1.58
2022-10-23T12:52:06.166Z,1.55
2022-10-23T12:53:18.179Z,1.75
2022-10-23T12:54:22.111Z,1.40
2022-10-23T12:55:28.839Z,1.33
2022-10-23T12:56:38.940Z,1.75
2022-10-23T12:57:42.473Z,1.23
2022-10-23T12:58:52.658Z,1.35
2022-10-23T12:59:59.278Z,1.23
2022-10-23T13:01:06.372Z,1.62
2022-10-23T13:02:25.119Z,1.27
2022-10-23T13:03:30.152Z,1.60
2022-10-23T13:04:35.654Z,1.50
2022-10-23T13:05:39.841Z,1.73
2022-10-23T13:06:44.001Z,1.40
2022-10-23T13:07:48.818Z,1.60
2022-10-23T13:08:52.699Z,1.48
2022-10-23T13:09:56.169Z,1.65
2022-10-23T13:10:59.493Z,1.30
2022-10-23T13:12:05.424Z,1.95
2022-10-23T13:13:10.641Z,1.55
2022-10-23T13:14:14.558Z,1.40
2022-10-23T13:15:20.824Z,1.70
2022-10-23T13:16:26.341Z,1.75
2022-10-23T13:17:55.798Z,1.23
2022-10-23T13:18:59.314Z,1.50
2022-10-23T13:20:34.857Z,1.73
2022-10-23T13:21:38.663Z,1.23
2022-10-23T13:22:42.263Z,1.70
2022-10-23T13:23:46.153Z,1.52
2022-10-23T13:24:52.407Z,1.80
2022-10-23T13:25:59.960Z,1.70
2022-10-23T13:27:03.282Z,1.30
2022-10-23T13:28:08.998Z,1.83
2022-10-23T13:29:22.076Z,1.35
2022-10-23T13:30:34.677Z,1.37
2022-10-23T13:31:37.800Z,1.67
2022-10-23T13:32:40.989Z,1.45
2022-10-23T13:33:47.476Z,1.30
2022-10-23T13:35:04.368Z,2.45
2022-10-23T13:36:15.256Z,1.85
2022-10-23T13:37:27.530Z,1.67
2022-10-23T13:38:37.631Z,1.30
2022-10-23T13:39:40.927Z,1.83
2022-10-23T13:40:43.950Z,1.70
2022-10-23T13:41:49.193Z,1.70
2022-10-23T13:42:55.618Z,1.08
2022-10-23T13:43:59.104Z,1.80
2022-10-23T13:45:02.524Z,1.30
2022-10-23T13:46:06.035Z,1.35
2022-10-23T13:47:14.775Z,1.65
2022-10-23T13:48:20.323Z,1.23
2022-10-23T13:49:26.610Z,1.45
2022-10-23T13:50:29.990Z,1.50
2022-10-23T13:51:42.596Z,1.85
2022-10-23T13:52:46.892Z,1.10
2022-10-23T13:53:50.488Z,1.20
2022-10-23T13:54:54.733Z,1.67
2022-10-23T13:55:58.829Z,1.58
2022-10-23T13:57:02.248Z,1.42
2022-10-23T13:58:05.693Z,1.60
2022-10-23T13:59:11.454Z,1.30
2022-10-23T14:00:15.507Z,1.90
2022-10-23T14:01:28.074Z,1.52
2022-10-23T14:02:31.494Z,3.37
2022-10-23T14:03:35.871Z,2.28
2022-10-23T14:04:39.424Z,2.40
2022-10-23T14:05:43.315Z,1.90
2022-10-23T14:06:46.970Z,2.83
2022-10-23T14:07:51.984Z,2.30
2022-10-23T14:08:55.536Z,2.83
2022-10-23T14:09:59.181Z,1.92
2022-10-23T14:11:03.195Z,2.33
2022-10-23T14:12:07.036Z,2.08
2022-10-23T14:13:10.004Z,2.00
2022-10-23T14:14:13.985Z,2.17
2022-10-23T14:15:17.175Z,1.98
2022-10-23T14:16:21.569Z,2.28
2022-10-23T14:17:24.987Z,2.25
2022-10-23T14:18:28.787Z,2.30
2022-10-23T14:19:34.123Z,2.08
2022-10-23T14:20:39.212Z,1.83
2022-10-23T14:21:42.375Z,2.37
2022-10-23T14:22:50.193Z,2.20
2022-10-23T14:23:54.495Z,1.98
2022-10-23T14:24:58.159Z,1.87
2022-10-23T14:26:03.125Z,2.37
2022-10-23T14:27:07.019Z,2.22
2022-10-23T14:28:10.098Z,1.98
2022-10-23T14:29:21.217Z,1.60
2022-10-23T14:30:27.593Z,2.03
2022-10-23T14:31:32.002Z,1.95
2022-10-23T14:32:36.190Z,2.33
2022-10-23T14:33:40.186Z,1.65
2022-10-23T14:34:47.335Z,2.40
2022-10-23T14:35:51.394Z,1.90
2022-10-23T14:37:08.008Z,1.52
2022-10-23T14:38:11.873Z,1.87
2022-10-23T14:39:15.088Z,1.83
2022-10-23T14:40:18.828Z,2.10
2022-10-23T14:41:23.769Z,1.83
2022-10-23T14:42:33.073Z,2.50
2022-10-23T14:43:39.287Z,1.65
2022-10-23T14:44:43.754Z,1.67
2022-10-23T14:45:47.249Z,1.73
2022-10-23T14:46:52.212Z,1.55
2022-10-23T14:47:56.399Z,1.92
2022-10-23T14:49:02.308Z,1.90
2022-10-23T14:50:07.026Z,1.55
2022-10-23T14:51:25.193Z,1.62
2022-10-23T14:52:29.957Z,1.70
2022-10-23T14:53:34.226Z,1.35
2022-10-23T14:54:37.295Z,1.62
2022-10-23T14:55:42.230Z,1.80
2022-10-23T14:56:48.411Z,1.55
2022-10-23T14:57:55.898Z,1.37
2022-10-23T14:59:03.064Z,1.52
2022-10-23T15:00:07.106Z,1.67
2022-10-23T15:01:11.240Z,1.67
2022-10-23T15:02:16.971Z,1.62
2022-10-23T15:03:24.045Z,1.80
2022-10-23T15:04:28.597Z,1.75
2022-10-23T15:05:34.386Z,1.52
2022-10-23T15:06:38.689Z,1.50
2022-10-23T15:07:42.372Z,1.65
2022-10-23T15:08:46.159Z,1.60
2022-10-23T15:09:50.891Z,2.08
2022-10-23T15:10:54.978Z,1.52
2022-10-23T15:11:59.475Z,2.12
2022-10-23T15:13:03.119Z,1.58
2022-10-23T15:14:07.137Z,1.58
2022-10-23T15:15:10.925Z,1.85
2022-10-23T15:16:15.027Z,1.92
2022-10-23T15:17:18.527Z,1.65